Time;durP1;ratioP1;P1;durP2;ratioP2;P2;SDS_P1;SDS_P2;PMS_P1;PMS_P2;Temp;Humidity;BMP_temperature;BMP_pressure;BME280_temperature;BME280_humidity;BME280_pressure;Samples;Min_cycle;Max_cycle;Signal;HPM_P1;HPM_P2
2023/08/27 00:01:31;;;;;;;5.30;4.80;;;11.80;99.90;;;;;;5021309;28;20033;-67
2023/08/27 00:03:56;;;;;;;5.75;4.57;;;11.70;99.90;;;;;;5046334;28;20514;-68
2023/08/27 00:06:22;;;;;;;6.20;4.50;;;11.70;99.90;;;;;;5037107;28;20029;-68
2023/08/27 00:08:48;;;;;;;4.68;4.20;;;11.80;99.90;;;;;;5041046;28;20342;-67
2023/08/27 00:11:13;;;;;;;7.40;4.90;;;11.70;99.90;;;;;;5039647;28;20029;-68
2023/08/27 00:13:39;;;;;;;5.68;4.53;;;11.70;99.90;;;;;;5035889;28;20182;-67
2023/08/27 00:16:05;;;;;;;5.28;4.65;;;11.60;99.90;;;;;;5016951;28;20109;-67
2023/08/27 00:18:32;;;;;;;4.38;3.97;;;11.50;99.90;;;;;;5030077;28;20037;-68
2023/08/27 00:20:58;;;;;;;5.13;4.10;;;11.40;99.90;;;;;;5036673;28;20045;-68
2023/08/27 00:23:24;;;;;;;9.10;4.90;;;11.20;99.90;;;;;;5039334;28;20037;-67
2023/08/27 00:25:50;;;;;;;22.77;5.45;;;11.20;99.90;;;;;;5031513;28;20396;-68
2023/08/27 00:28:15;;;;;;;6.85;4.20;;;11.20;99.90;;;;;;5029186;28;20037;-67
2023/08/27 00:30:41;;;;;;;19.88;4.82;;;11.10;99.90;;;;;;5032827;28;20049;-67
2023/08/27 00:33:07;;;;;;;4.10;3.33;;;11.10;99.90;;;;;;5015376;28;20429;-67
2023/08/27 00:35:33;;;;;;;5.75;3.70;;;11.00;99.90;;;;;;5033618;28;20044;-67
2023/08/27 00:37:59;;;;;;;9.52;3.42;;;11.10;99.90;;;;;;5018110;28;20045;-67
2023/08/27 00:40:28;;;;;;;3.70;3.40;;;11.10;99.90;;;;;;5043660;28;20363;-67
2023/08/27 00:42:55;;;;;;;3.55;3.25;;;11.10;99.90;;;;;;5024014;28;20039;-67
2023/08/27 00:45:20;;;;;;;4.85;3.90;;;11.10;99.90;;;;;;5047932;28;20093;-69
2023/08/27 00:47:46;;;;;;;5.05;3.92;;;11.10;99.90;;;;;;5051264;28;20041;-67
2023/08/27 00:50:12;;;;;;;5.10;4.60;;;11.20;99.90;;;;;;5049461;28;20037;-67
2023/08/27 00:52:37;;;;;;;5.70;4.20;;;11.30;99.90;;;;;;5045863;28;20045;-67
2023/08/27 00:55:04;;;;;;;5.72;3.75;;;11.30;99.90;;;;;;5049699;28;20055;-67
2023/08/27 00:57:31;;;;;;;4.50;3.75;;;11.30;99.90;;;;;;5044775;28;20057;-67
2023/08/27 00:59:58;;;;;;;4.50;4.10;;;11.30;99.90;;;;;;5043793;28;20046;-67
2023/08/27 01:02:24;;;;;;;4.40;4.00;;;11.40;99.90;;;;;;5024903;28;20064;-67
2023/08/27 01:04:50;;;;;;;4.22;3.83;;;11.30;99.90;;;;;;5042202;28;20041;-67
2023/08/27 01:07:26;;;;;;;4.75;3.60;;;11.30;99.90;;;;;;5015688;28;20064;-72
2023/08/27 01:10:03;;;;;;;4.32;3.75;;;11.20;99.90;;;;;;5032851;28;20093;-67
2023/08/27 01:12:47;;;;;;;5.18;3.67;;;11.10;99.90;;;;;;5025424;28;20037;-67
2023/08/27 01:15:13;;;;;;;4.68;4.20;;;11.00;99.90;;;;;;5045628;28;20485;-67
2023/08/27 01:17:39;;;;;;;4.65;4.22;;;11.00;99.90;;;;;;5046217;28;20041;-67
2023/08/27 01:20:06;;;;;;;5.43;4.55;;;11.00;99.90;;;;;;5041462;28;20358;-67
2023/08/27 01:22:32;;;;;;;5.15;4.55;;;11.00;99.90;;;;;;5036061;28;20052;-67
2023/08/27 01:24:57;;;;;;;5.38;4.55;;;11.10;99.90;;;;;;5036352;28;20041;-67
2023/08/27 01:27:42;;;;;;;5.43;4.07;;;11.10;99.90;;;;;;5034885;28;20083;-67
2023/08/27 01:30:20;;;;;;;5.25;4.53;;;11.10;99.90;;;;;;5032451;28;20049;-67
2023/08/27 01:33:09;;;;;;;5.47;4.28;;;11.10;99.90;;;;;;5046701;28;20045;-67
2023/08/27 01:35:36;;;;;;;5.50;4.40;;;11.20;99.90;;;;;;5039285;28;20049;-67
2023/08/27 01:38:02;;;;;;;5.45;4.15;;;11.20;99.90;;;;;;5034306;28;20045;-67
2023/08/27 01:40:28;;;;;;;4.60;4.20;;;11.20;99.90;;;;;;5044883;28;20056;-67
2023/08/27 01:42:53;;;;;;;4.80;4.28;;;11.20;99.90;;;;;;5040114;28;20063;-67
2023/08/27 01:45:19;;;;;;;6.30;4.70;;;11.30;99.90;;;;;;5040634;28;20037;-67
2023/08/27 01:47:44;;;;;;;5.20;4.25;;;11.30;99.90;;;;;;5040149;28;20045;-67
2023/08/27 01:50:10;;;;;;;5.80;4.82;;;11.30;99.90;;;;;;5017898;28;20136;-67
2023/08/27 01:52:36;;;;;;;7.03;5.60;;;11.40;99.90;;;;;;5012290;28;20164;-68
2023/08/27 01:55:04;;;;;;;9.20;7.47;;;11.40;99.90;;;;;;5035355;28;20131;-67
2023/08/27 01:57:29;;;;;;;10.38;8.20;;;11.50;99.90;;;;;;5025918;28;20133;-67
2023/08/27 01:59:55;;;;;;;10.32;7.95;;;11.60;99.90;;;;;;5045711;28;20131;-67
2023/08/27 02:02:21;;;;;;;12.23;7.78;;;11.70;99.90;;;;;;5036565;28;20381;-67
2023/08/27 02:04:46;;;;;;;14.57;9.15;;;11.70;99.90;;;;;;5034068;28;20150;-67
2023/08/27 02:07:12;;;;;;;14.32;9.95;;;11.70;99.90;;;;;;5037908;28;20044;-67
2023/08/27 02:09:37;;;;;;;17.45;10.85;;;11.80;99.90;;;;;;5042694;28;20484;-68
2023/08/27 02:12:04;;;;;;;17.45;11.13;;;11.90;99.90;;;;;;5045957;28;20120;-66
2023/08/27 02:14:29;;;;;;;15.13;10.65;;;12.00;99.90;;;;;;5032137;28;20044;-67
2023/08/27 02:16:55;;;;;;;18.35;12.20;;;12.00;99.90;;;;;;5049478;28;20045;-67
2023/08/27 02:19:21;;;;;;;17.10;11.25;;;12.10;99.90;;;;;;5043684;28;20112;-67
2023/08/27 02:21:47;;;;;;;23.33;12.27;;;12.10;99.90;;;;;;5050081;28;20033;-67
2023/08/27 02:24:12;;;;;;;17.85;12.00;;;12.10;99.90;;;;;;5042944;28;20485;-67
2023/08/27 02:26:38;;;;;;;19.00;11.95;;;12.10;99.90;;;;;;5040913;28;20038;-67
2023/08/27 02:29:03;;;;;;;22.13;11.65;;;12.10;99.90;;;;;;5027123;28;20045;-67
2023/08/27 02:31:29;;;;;;;17.58;11.52;;;12.10;99.90;;;;;;5042380;28;20037;-67
2023/08/27 02:33:55;;;;;;;15.80;11.13;;;12.10;99.90;;;;;;5026728;28;20274;-67
2023/08/27 02:36:21;;;;;;;16.83;11.20;;;12.10;99.90;;;;;;5034829;28;20124;-67
2023/08/27 02:38:46;;;;;;;17.33;11.35;;;12.00;99.90;;;;;;5032933;28;20103;-67
2023/08/27 02:41:13;;;;;;;16.15;10.93;;;12.00;99.90;;;;;;5017742;28;20454;-67
2023/08/27 02:43:39;;;;;;;17.95;10.85;;;12.00;99.90;;;;;;5035958;28;20044;-67
2023/08/27 02:46:04;;;;;;;15.25;10.07;;;12.00;99.90;;;;;;5040989;28;20029;-67
2023/08/27 02:48:30;;;;;;;17.75;11.07;;;11.90;99.90;;;;;;5038814;28;20428;-67
2023/08/27 02:50:56;;;;;;;17.08;11.77;;;11.90;99.90;;;;;;5046149;28;20036;-67
2023/08/27 02:53:21;;;;;;;14.98;10.73;;;11.90;99.90;;;;;;5034440;28;20411;-67
2023/08/27 02:55:48;;;;;;;15.40;10.77;;;11.90;99.90;;;;;;5040705;28;20041;-67
2023/08/27 02:58:13;;;;;;;16.42;11.07;;;11.80;99.90;;;;;;5035217;28;20481;-67
2023/08/27 03:00:40;;;;;;;17.50;11.05;;;11.80;99.90;;;;;;5031439;28;20041;-67
2023/08/27 03:03:07;;;;;;;19.00;11.23;;;11.80;99.90;;;;;;5006536;28;20036;-67
2023/08/27 03:05:33;;;;;;;14.27;10.65;;;11.80;99.90;;;;;;5030878;28;20037;-67
2023/08/27 03:07:59;;;;;;;17.08;11.18;;;11.80;99.90;;;;;;5040323;28;20064;-67
2023/08/27 03:10:24;;;;;;;17.35;11.60;;;11.70;99.90;;;;;;5027542;28;20037;-67
2023/08/27 03:12:50;;;;;;;20.23;10.88;;;11.70;99.90;;;;;;5041279;28;20469;-67
2023/08/27 03:15:16;;;;;;;19.77;11.35;;;11.70;99.90;;;;;;5033626;28;20043;-68
2023/08/27 03:17:41;;;;;;;15.98;11.10;;;11.70;99.90;;;;;;5031096;28;20122;-67
2023/08/27 03:20:07;;;;;;;15.38;11.02;;;11.70;99.90;;;;;;5018467;28;20095;-66
2023/08/27 03:22:33;;;;;;;18.15;11.32;;;11.70;99.90;;;;;;5039453;28;20037;-66
2023/08/27 03:25:01;;;;;;;17.58;11.52;;;11.70;99.90;;;;;;5032708;28;20044;-67
2023/08/27 03:27:27;;;;;;;19.67;12.02;;;11.70;99.90;;;;;;5045615;28;20469;-67
2023/08/27 03:29:52;;;;;;;17.27;12.27;;;11.70;99.90;;;;;;5033154;28;20064;-68
2023/08/27 03:32:18;;;;;;;20.25;12.90;;;11.80;99.90;;;;;;5029947;28;20049;-67
2023/08/27 03:34:43;;;;;;;16.67;12.05;;;11.80;99.90;;;;;;5039213;28;20126;-67
2023/08/27 03:37:09;;;;;;;20.55;12.52;;;11.80;99.90;;;;;;5039435;28;20065;-67
2023/08/27 03:39:35;;;;;;;20.85;12.38;;;11.80;99.90;;;;;;5033612;28;20045;-66
2023/08/27 03:42:00;;;;;;;17.70;11.98;;;11.80;99.90;;;;;;5023652;28;20400;-67
2023/08/27 03:44:26;;;;;;;17.60;12.25;;;11.90;99.90;;;;;;5019289;28;20131;-67
2023/08/27 03:46:52;;;;;;;15.77;11.15;;;11.80;99.90;;;;;;5040900;28;20044;-67
2023/08/27 03:49:17;;;;;;;17.60;11.73;;;11.90;99.90;;;;;;5030029;28;20037;-67
2023/08/27 03:51:43;;;;;;;17.48;11.25;;;11.90;99.90;;;;;;5045686;28;20126;-67
2023/08/27 03:54:08;;;;;;;17.52;11.93;;;11.90;99.90;;;;;;5039282;28;20406;-67
2023/08/27 03:56:34;;;;;;;17.17;11.13;;;11.90;99.90;;;;;;5040860;28;20037;-67
2023/08/27 03:58:59;;;;;;;15.15;10.90;;;11.80;99.90;;;;;;5043215;28;20189;-67
2023/08/27 04:01:25;;;;;;;18.38;10.85;;;11.80;99.90;;;;;;5039976;28;20061;-67
2023/08/27 04:03:53;;;;;;;16.13;11.30;;;11.90;99.90;;;;;;5042935;28;20425;-67
2023/08/27 04:06:18;;;;;;;16.15;11.18;;;11.90;99.90;;;;;;5030948;28;20042;-67
2023/08/27 04:08:44;;;;;;;14.27;10.75;;;11.90;99.90;;;;;;5041667;28;20141;-67
2023/08/27 04:11:11;;;;;;;17.75;10.77;;;11.90;99.90;;;;;;5043011;28;20115;-67
2023/08/27 04:13:37;;;;;;;15.15;10.38;;;12.00;99.90;;;;;;5046515;28;20072;-67
2023/08/27 04:16:06;;;;;;;16.08;10.48;;;12.10;99.90;;;;;;5048156;28;20052;-67
2023/08/27 04:18:34;;;;;;;15.73;9.98;;;12.10;99.90;;;;;;5049726;28;20071;-67
2023/08/27 04:21:01;;;;;;;18.40;10.45;;;12.00;99.90;;;;;;5038730;28;20075;-67
2023/08/27 04:23:27;;;;;;;17.42;10.65;;;12.00;99.90;;;;;;5045601;28;20033;-67
2023/08/27 04:25:53;;;;;;;14.60;10.02;;;12.00;99.90;;;;;;5033451;28;20477;-67
2023/08/27 04:28:18;;;;;;;15.45;10.25;;;12.00;99.90;;;;;;5042015;28;20052;-67
2023/08/27 04:30:48;;;;;;;14.30;9.60;;;11.90;99.90;;;;;;5010437;28;20474;-67
2023/08/27 04:33:14;;;;;;;14.38;10.38;;;11.90;99.90;;;;;;5044708;28;20134;-67
2023/08/27 04:35:39;;;;;;;15.48;10.32;;;11.90;99.90;;;;;;5038274;28;20650;-67
2023/08/27 04:38:06;;;;;;;13.90;10.25;;;11.90;99.90;;;;;;5015170;28;20618;-67
2023/08/27 04:40:32;;;;;;;13.75;10.23;;;11.80;99.90;;;;;;5040597;28;20049;-67
2023/08/27 04:42:58;;;;;;;14.95;10.68;;;11.80;99.90;;;;;;5044011;28;20044;-67
2023/08/27 04:45:24;;;;;;;15.68;10.38;;;11.80;99.90;;;;;;5012297;28;20362;-67
2023/08/27 04:47:50;;;;;;;17.15;10.85;;;11.80;99.90;;;;;;5034288;28;20044;-67
2023/08/27 04:50:15;;;;;;;14.93;10.07;;;11.90;99.90;;;;;;5014908;28;20042;-67
2023/08/27 04:52:41;;;;;;;17.10;9.73;;;11.90;99.90;;;;;;5011569;28;20072;-67
2023/08/27 04:55:07;;;;;;;14.02;9.80;;;11.90;99.90;;;;;;5042069;28;20076;-67
2023/08/27 04:57:37;;;;;;;14.02;9.60;;;11.90;99.90;;;;;;5043720;28;20060;-67
2023/08/27 05:00:20;;;;;;;17.80;10.37;;;12.00;99.90;;;;;;5026992;28;20090;-67
2023/08/27 05:02:46;;;;;;;13.63;9.85;;;11.90;99.90;;;;;;5036659;28;20044;-67
2023/08/27 05:05:12;;;;;;;13.18;9.90;;;12.00;99.90;;;;;;5048109;28;20060;-67
2023/08/27 05:07:38;;;;;;;13.90;10.20;;;12.00;99.90;;;;;;5044026;28;20500;-67
2023/08/27 05:10:04;;;;;;;14.00;10.68;;;12.00;99.90;;;;;;5038447;28;20036;-67
2023/08/27 05:12:29;;;;;;;12.43;9.43;;;12.10;99.90;;;;;;5032086;28;20084;-67
2023/08/27 05:14:55;;;;;;;14.00;9.57;;;12.10;99.90;;;;;;5040903;28;20044;-68
2023/08/27 05:17:20;;;;;;;14.75;9.90;;;12.10;99.90;;;;;;5019572;28;20509;-67
2023/08/27 05:19:46;;;;;;;16.83;10.23;;;12.10;99.90;;;;;;5032981;28;20068;-67
2023/08/27 05:22:11;;;;;;;13.70;10.40;;;12.00;99.90;;;;;;5040086;28;20045;-68
2023/08/27 05:24:37;;;;;;;12.55;9.60;;;12.10;99.90;;;;;;5034260;28;20037;-68
2023/08/27 05:27:03;;;;;;;14.52;9.38;;;12.10;99.90;;;;;;5033999;28;20029;-68
2023/08/27 05:29:29;;;;;;;13.25;9.60;;;12.20;99.90;;;;;;5034800;28;20502;-67
2023/08/27 05:31:55;;;;;;;14.65;9.70;;;12.20;99.90;;;;;;5029731;28;20048;-68
2023/08/27 05:34:20;;;;;;;15.80;9.80;;;12.30;99.90;;;;;;5036736;28;20045;-67
2023/08/27 05:36:46;;;;;;;13.60;9.20;;;12.40;99.90;;;;;;5036384;28;20047;-68
2023/08/27 05:39:14;;;;;;;16.10;10.00;;;12.50;99.90;;;;;;5029915;28;20037;-68
2023/08/27 05:41:40;;;;;;;15.63;10.30;;;12.60;99.90;;;;;;5032065;28;20090;-67
2023/08/27 05:44:05;;;;;;;13.55;9.70;;;12.70;99.90;;;;;;5033083;28;20048;-67
2023/08/27 05:46:31;;;;;;;14.23;10.57;;;12.80;99.90;;;;;;5036482;28;20484;-68
2023/08/27 05:48:56;;;;;;;13.60;10.00;;;12.90;99.90;;;;;;5039417;28;20147;-68
2023/08/27 05:51:22;;;;;;;15.32;10.38;;;13.10;99.90;;;;;;5032447;28;20055;-68
2023/08/27 05:53:47;;;;;;;17.30;10.68;;;13.20;99.90;;;;;;5022466;28;20542;-68
2023/08/27 05:56:13;;;;;;;17.08;10.73;;;13.30;99.90;;;;;;5041927;28;20044;-68
2023/08/27 05:58:39;;;;;;;15.18;10.95;;;13.30;99.90;;;;;;5033082;28;20441;-68
2023/08/27 06:01:04;;;;;;;14.82;10.63;;;13.30;99.90;;;;;;5036136;28;20048;-68
2023/08/27 06:03:30;;;;;;;16.95;11.23;;;13.40;99.90;;;;;;5037716;28;20033;-67
2023/08/27 06:05:56;;;;;;;15.68;10.85;;;13.40;99.90;;;;;;5031246;28;20034;-68
2023/08/27 06:08:21;;;;;;;14.32;10.63;;;13.50;99.90;;;;;;5038531;28;20037;-66
2023/08/27 06:10:47;;;;;;;15.88;11.32;;;13.60;99.90;;;;;;5032222;28;20096;-67
2023/08/27 06:13:13;;;;;;;15.02;9.65;;;13.80;99.90;;;;;;5031921;28;20583;-67
2023/08/27 06:15:38;;;;;;;13.15;10.13;;;13.70;99.90;;;;;;5039800;28;20056;-67
2023/08/27 06:18:08;;;;;;;15.88;9.80;;;13.80;99.90;;;;;;5028741;28;20073;-67
2023/08/27 06:20:33;;;;;;;14.70;9.57;;;13.80;99.90;;;;;;5056858;28;20056;-69
2023/08/27 06:23:01;;;;;;;13.15;10.02;;;13.80;99.90;;;;;;5040405;28;20037;-67
2023/08/27 06:25:26;;;;;;;13.68;9.98;;;13.80;99.90;;;;;;5038171;28;20047;-67
2023/08/27 06:27:58;;;;;;;15.30;10.38;;;13.70;99.90;;;;;;5045992;28;20582;-66
2023/08/27 06:30:23;;;;;;;16.35;9.68;;;13.60;99.90;;;;;;5035109;28;20048;-66
2023/08/27 06:32:49;;;;;;;14.30;10.23;;;13.50;99.90;;;;;;5018450;28;20041;-67
2023/08/27 06:35:15;;;;;;;14.18;10.38;;;13.50;99.90;;;;;;5047195;28;20041;-67
2023/08/27 06:37:40;;;;;;;15.70;9.98;;;13.40;99.90;;;;;;5025603;28;20523;-68
2023/08/27 06:40:07;;;;;;;17.88;10.55;;;13.40;99.90;;;;;;5039834;28;20045;-67
2023/08/27 06:42:33;;;;;;;14.88;10.23;;;13.40;99.90;;;;;;5035322;28;20033;-67
2023/08/27 06:45:00;;;;;;;13.82;9.63;;;13.30;99.90;;;;;;5033335;28;20095;-67
2023/08/27 06:47:25;;;;;;;20.30;9.77;;;13.30;99.90;;;;;;5015749;28;20041;-67
2023/08/27 06:49:51;;;;;;;14.90;9.40;;;13.30;99.90;;;;;;5030021;28;20052;-67
2023/08/27 06:52:18;;;;;;;16.50;8.88;;;13.30;99.90;;;;;;5027443;28;20045;-67
2023/08/27 06:54:44;;;;;;;15.82;8.95;;;13.20;99.90;;;;;;5031717;28;20943;-66
2023/08/27 06:57:09;;;;;;;17.17;8.77;;;13.20;99.90;;;;;;5036802;28;20038;-67
2023/08/27 06:59:35;;;;;;;16.73;8.93;;;13.20;99.90;;;;;;5027460;28;20045;-68
2023/08/27 07:02:03;;;;;;;15.73;8.82;;;13.10;99.90;;;;;;5057163;28;20030;-69
2023/08/27 07:04:28;;;;;;;15.63;8.40;;;13.10;99.90;;;;;;5029813;28;20052;-70
2023/08/27 07:06:54;;;;;;;15.38;7.70;;;13.10;99.90;;;;;;5011318;28;20501;-70
2023/08/27 07:09:22;;;;;;;17.13;7.28;;;13.10;99.90;;;;;;5031134;28;20346;-69
2023/08/27 07:11:47;;;;;;;10.77;7.28;;;13.10;99.90;;;;;;5047347;28;20064;-69
2023/08/27 07:14:13;;;;;;;12.13;6.32;;;13.10;99.90;;;;;;5035303;28;20110;-69
2023/08/27 07:16:38;;;;;;;11.63;6.13;;;13.10;99.90;;;;;;5032616;28;20041;-71
2023/08/27 07:19:04;;;;;;;11.90;6.93;;;13.10;99.90;;;;;;5040503;28;20055;-70
2023/08/27 07:21:29;;;;;;;11.48;6.13;;;13.10;99.90;;;;;;5032408;28;20061;-70
2023/08/27 07:23:55;;;;;;;11.68;6.00;;;13.10;99.90;;;;;;5041045;28;20480;-71
2023/08/27 07:26:21;;;;;;;10.60;5.88;;;13.10;99.90;;;;;;5026830;28;20464;-70
2023/08/27 07:28:46;;;;;;;8.52;6.15;;;13.10;99.90;;;;;;5027596;28;20044;-71
2023/08/27 07:31:12;;;;;;;10.40;5.93;;;13.10;99.90;;;;;;5039530;28;20040;-70
2023/08/27 07:33:38;;;;;;;8.48;5.28;;;13.10;99.90;;;;;;5016634;28;20037;-70
2023/08/27 07:36:03;;;;;;;12.02;6.13;;;13.00;99.90;;;;;;5037027;28;20055;-73
2023/08/27 07:38:29;;;;;;;10.02;5.22;;;13.10;99.90;;;;;;5037118;28;20044;-71
2023/08/27 07:40:54;;;;;;;9.60;6.05;;;13.10;99.90;;;;;;5030546;28;20038;-71
2023/08/27 07:43:20;;;;;;;12.30;6.15;;;13.20;99.90;;;;;;5011677;28;20474;-70
2023/08/27 07:45:46;;;;;;;10.40;6.28;;;13.30;99.90;;;;;;5031479;28;20398;-71
2023/08/27 07:48:11;;;;;;;10.10;5.95;;;13.50;99.90;;;;;;5038686;28;20033;-70
2023/08/27 07:50:38;;;;;;;8.93;5.47;;;13.60;99.90;;;;;;5036451;28;20145;-70
2023/08/27 07:53:04;;;;;;;9.45;5.55;;;13.70;99.90;;;;;;5032412;28;20124;-71
2023/08/27 07:55:31;;;;;;;10.73;4.88;;;13.80;99.90;;;;;;5036687;28;20603;-70
2023/08/27 07:57:58;;;;;;;6.32;4.47;;;13.80;99.90;;;;;;5020523;28;20132;-72
2023/08/27 08:00:23;;;;;;;8.52;4.35;;;13.90;99.90;;;;;;5029476;28;20041;-71
2023/08/27 08:02:49;;;;;;;6.55;4.00;;;14.40;99.90;;;;;;5032993;28;20386;-69
2023/08/27 08:05:15;;;;;;;10.73;4.13;;;14.50;99.90;;;;;;5046078;28;20037;-71
2023/08/27 08:07:42;;;;;;;5.28;3.90;;;14.90;99.90;;;;;;5036972;28;20029;-69
2023/08/27 08:10:08;;;;;;;4.57;3.35;;;15.20;99.90;;;;;;5041508;28;20041;-70
2023/08/27 08:12:34;;;;;;;4.55;2.95;;;15.30;99.90;;;;;;5045636;28;20178;-70
2023/08/27 08:15:00;;;;;;;4.28;2.85;;;15.60;99.90;;;;;;5015109;28;20068;-70
2023/08/27 08:17:25;;;;;;;3.67;2.50;;;15.90;99.90;;;;;;5042169;28;20052;-71
2023/08/27 08:19:52;;;;;;;3.00;2.30;;;16.00;99.90;;;;;;5038396;28;20458;-70
2023/08/27 08:22:17;;;;;;;3.60;2.15;;;16.20;99.90;;;;;;5040169;28;20052;-70
2023/08/27 08:24:43;;;;;;;3.30;2.47;;;16.30;99.90;;;;;;5019604;28;20121;-71
2023/08/27 08:27:08;;;;;;;2.63;2.25;;;16.80;99.90;;;;;;5042780;28;20454;-71
2023/08/27 08:29:34;;;;;;;2.13;1.92;;;17.10;99.90;;;;;;5045872;28;20033;-70
2023/08/27 08:32:00;;;;;;;2.70;1.63;;;16.90;99.90;;;;;;5044685;28;20065;-71
2023/08/27 08:34:27;;;;;;;2.28;1.60;;;17.20;99.90;;;;;;5045446;28;20463;-70
2023/08/27 08:36:53;;;;;;;3.50;2.25;;;17.30;99.90;;;;;;5040031;28;20381;-71
2023/08/27 08:39:19;;;;;;;4.38;2.30;;;17.70;99.90;;;;;;5037610;28;20037;-69
2023/08/27 08:41:53;;;;;;;4.03;1.80;;;18.20;99.90;;;;;;5049813;28;20040;-71
2023/08/27 08:44:27;;;;;;;2.90;1.75;;;18.20;99.90;;;;;;5047970;28;20044;-70
2023/08/27 08:46:52;;;;;;;2.65;2.00;;;17.80;99.90;;;;;;5049903;28;20044;-71
2023/08/27 08:49:22;;;;;;;2.95;2.10;;;18.30;99.90;;;;;;5032711;28;20112;-71
2023/08/27 08:51:54;;;;;;;4.17;2.13;;;18.60;99.90;;;;;;5051296;28;20053;-70
2023/08/27 08:54:25;;;;;;;5.10;2.35;;;18.80;99.90;;;;;;5050604;28;20271;-70
2023/08/27 08:56:54;;;;;;;3.33;2.20;;;18.80;99.90;;;;;;5047970;28;20083;-71
2023/08/27 08:59:22;;;;;;;6.28;2.60;;;18.60;99.90;;;;;;5031401;28;20048;-70
2023/08/27 09:01:48;;;;;;;3.65;2.20;;;18.80;99.90;;;;;;5049875;28;20080;-70
2023/08/27 09:04:15;;;;;;;2.97;2.30;;;19.10;99.90;;;;;;5052365;28;20124;-68
2023/08/27 09:06:42;;;;;;;3.83;2.03;;;18.70;99.90;;;;;;5052543;28;20084;-71
2023/08/27 09:09:09;;;;;;;3.33;2.40;;;18.80;99.90;;;;;;5049994;28;20079;-70
2023/08/27 09:11:37;;;;;;;7.47;3.53;;;18.60;99.90;;;;;;5031856;28;20044;-70
2023/08/27 09:14:03;;;;;;;3.72;2.47;;;18.50;99.90;;;;;;5036732;28;20541;-70
2023/08/27 09:16:30;;;;;;;3.60;2.65;;;18.30;99.90;;;;;;5046434;28;20326;-69
2023/08/27 09:18:56;;;;;;;3.08;2.30;;;18.30;99.90;;;;;;5039612;28;20144;-69
2023/08/27 09:21:22;;;;;;;2.55;2.20;;;18.00;99.90;;;;;;5030944;28;20485;-70
2023/08/27 09:23:47;;;;;;;4.30;2.25;;;17.80;99.90;;;;;;5033348;28;20152;-68
2023/08/27 09:26:14;;;;;;;3.72;2.03;;;17.90;99.90;;;;;;5042499;28;20049;-68
2023/08/27 09:28:40;;;;;;;3.95;2.47;;;17.90;99.90;;;;;;5047773;28;20120;-67
2023/08/27 09:31:09;;;;;;;3.58;2.40;;;17.90;99.90;;;;;;5037140;28;20037;-68
2023/08/27 09:33:40;;;;;;;4.65;2.50;;;18.00;99.90;;;;;;5025274;28;20041;-68
2023/08/27 09:36:09;;;;;;;5.82;2.50;;;17.90;99.90;;;;;;5016549;28;20473;-68
2023/08/27 09:38:35;;;;;;;3.93;2.27;;;17.90;99.90;;;;;;5029495;28;20121;-67
2023/08/27 09:41:17;;;;;;;2.72;2.03;;;18.00;99.90;;;;;;5036748;28;20052;-66
2023/08/27 09:43:53;;;;;;;3.15;2.38;;;18.00;99.40;;;;;;5044211;28;20061;-69
2023/08/27 09:46:19;;;;;;;3.80;2.17;;;18.10;99.90;;;;;;5016676;28;20064;-67
2023/08/27 09:49:04;;;;;;;5.53;2.53;;;18.30;99.90;;;;;;5043254;28;20117;-68
2023/08/27 09:51:35;;;;;;;4.57;2.60;;;18.30;99.00;;;;;;5042469;28;20052;-69
2023/08/27 09:54:11;;;;;;;5.13;2.33;;;18.50;97.10;;;;;;5033533;28;20047;-68
2023/08/27 09:56:37;;;;;;;3.03;2.50;;;18.50;99.10;;;;;;5043979;28;20044;-69
2023/08/27 09:59:05;;;;;;;4.60;2.30;;;18.60;98.90;;;;;;5046615;28;20732;-68
2023/08/27 10:01:37;;;;;;;5.20;2.72;;;18.70;98.60;;;;;;5036427;28;20522;-68
2023/08/27 10:04:07;;;;;;;4.32;2.40;;;18.90;98.50;;;;;;5046385;28;20120;-69
2023/08/27 10:06:37;;;;;;;3.20;2.38;;;19.00;98.30;;;;;;5044769;28;20113;-68
2023/08/27 10:09:03;;;;;;;5.27;2.73;;;19.00;97.50;;;;;;5044518;28;20405;-67
2023/08/27 10:11:29;;;;;;;5.32;2.53;;;19.20;97.50;;;;;;5037179;28;20288;-68
2023/08/27 10:13:57;;;;;;;3.90;2.72;;;19.60;96.90;;;;;;5036049;28;20061;-68
2023/08/27 10:16:23;;;;;;;4.03;2.40;;;19.50;94.70;;;;;;5034640;28;20307;-68
2023/08/27 10:18:49;;;;;;;4.50;2.78;;;19.60;95.40;;;;;;5043753;28;20056;-67
2023/08/27 10:21:15;;;;;;;4.72;2.47;;;19.50;95.10;;;;;;5046042;28;20058;-67
2023/08/27 10:23:42;;;;;;;2.58;2.20;;;19.40;94.80;;;;;;5032816;28;20048;-67
2023/08/27 10:26:09;;;;;;;3.75;2.30;;;19.30;94.60;;;;;;5046312;28;20033;-68
2023/08/27 10:28:35;;;;;;;3.10;2.13;;;19.30;93.70;;;;;;5047902;28;20087;-67
2023/08/27 10:31:02;;;;;;;4.15;2.17;;;19.50;93.90;;;;;;5029818;28;20127;-67
2023/08/27 10:33:28;;;;;;;4.55;2.53;;;19.60;92.30;;;;;;5049741;28;20461;-67
2023/08/27 10:35:55;;;;;;;3.45;2.33;;;19.70;91.60;;;;;;5050238;28;20111;-67
2023/08/27 10:38:25;;;;;;;2.15;1.77;;;19.90;91.00;;;;;;5045424;28;20112;-67
2023/08/27 10:40:51;;;;;;;4.13;2.40;;;20.00;91.30;;;;;;5033437;28;20049;-68
2023/08/27 10:43:19;;;;;;;4.43;2.08;;;20.20;91.20;;;;;;5048779;28;20083;-67
2023/08/27 10:45:46;;;;;;;4.38;2.20;;;20.20;91.40;;;;;;5042004;28;20033;-69
2023/08/27 10:48:17;;;;;;;2.78;2.03;;;20.20;90.00;;;;;;5012803;28;20057;-66
2023/08/27 10:50:58;;;;;;;2.80;1.85;;;20.00;85.80;;;;;;5035874;28;20036;-69
2023/08/27 10:53:24;;;;;;;2.55;1.88;;;19.80;85.60;;;;;;5033068;28;20041;-67
2023/08/27 10:55:52;;;;;;;2.88;1.77;;;19.70;89.50;;;;;;5034249;28;20085;-67
2023/08/27 10:58:22;;;;;;;3.47;1.90;;;19.90;86.80;;;;;;5033071;28;20129;-68
2023/08/27 11:00:59;;;;;;;2.63;1.88;;;19.70;80.10;;;;;;5025469;28;20076;-67
2023/08/27 11:03:25;;;;;;;2.75;1.52;;;19.40;80.80;;;;;;5038182;28;20110;-67
2023/08/27 11:06:12;;;;;;;2.63;1.45;;;19.70;85.10;;;;;;5030401;28;20121;-67
2023/08/27 11:08:40;;;;;;;2.83;1.60;;;19.80;76.40;;;;;;5027974;28;20358;-68
2023/08/27 11:11:14;;;;;;;4.18;1.50;;;19.90;79.60;;;;;;5034487;28;20183;-68
2023/08/27 11:13:46;;;;;;;2.50;1.42;;;20.10;82.60;;;;;;5044515;28;20045;-66
2023/08/27 11:16:16;;;;;;;1.77;1.40;;;20.20;83.50;;;;;;5030301;28;20045;-69
2023/08/27 11:18:52;;;;;;;6.32;2.17;;;20.20;82.10;;;;;;5039560;28;20053;-68
2023/08/27 11:21:38;;;;;;;3.67;2.20;;;20.10;77.10;;;;;;5045976;28;20155;-67
2023/08/27 11:24:17;;;;;;;4.55;2.70;;;19.80;78.50;;;;;;5007985;28;20124;-69
2023/08/27 11:26:46;;;;;;;18.50;7.97;;;19.20;84.20;;;;;;5048177;28;20330;-68
2023/08/27 11:29:12;;;;;;;7.50;4.60;;;19.10;87.30;;;;;;5017048;28;20033;-68
2023/08/27 11:31:40;;;;;;;6.50;3.17;;;18.90;89.00;;;;;;5036373;28;20411;-68
2023/08/27 11:34:06;;;;;;;8.45;3.13;;;18.80;88.20;;;;;;5029267;28;20091;-66
2023/08/27 11:36:33;;;;;;;5.72;2.60;;;17.40;94.60;;;;;;5047413;28;20372;-68
2023/08/27 11:38:59;;;;;;;4.10;2.45;;;16.80;99.90;;;;;;5023968;28;20054;-69
2023/08/27 11:41:25;;;;;;;4.63;2.10;;;16.50;99.90;;;;;;5037727;28;20041;-70
2023/08/27 11:43:54;;;;;;;4.47;2.38;;;16.20;99.90;;;;;;5020436;28;20041;-70
2023/08/27 11:46:21;;;;;;;3.05;2.10;;;16.10;99.90;;;;;;5035223;28;20530;-73
2023/08/27 11:48:50;;;;;;;3.47;2.10;;;16.10;99.90;;;;;;5022337;28;20707;-72
2023/08/27 11:51:15;;;;;;;3.58;2.15;;;16.00;99.90;;;;;;5019360;28;20052;-71
2023/08/27 11:53:44;;;;;;;2.75;2.30;;;15.80;99.90;;;;;;5030705;28;20591;-69
2023/08/27 11:56:12;;;;;;;4.70;2.55;;;15.80;99.90;;;;;;5016653;28;20048;-72
2023/08/27 11:58:39;;;;;;;3.75;2.45;;;15.90;99.90;;;;;;5015477;28;20088;-70
2023/08/27 12:01:06;;;;;;;1.90;1.70;;;16.00;99.90;;;;;;5020664;28;20120;-69
2023/08/27 12:03:33;;;;;;;2.90;1.92;;;15.90;99.90;;;;;;5022991;28;20045;-70
2023/08/27 12:05:58;;;;;;;5.97;2.47;;;16.00;99.90;;;;;;5027500;28;20041;-71
2023/08/27 12:08:24;;;;;;;3.35;2.30;;;15.90;99.90;;;;;;5002558;28;21165;-70
2023/08/27 12:10:51;;;;;;;3.78;2.58;;;15.90;99.90;;;;;;5046179;28;20422;-68
2023/08/27 12:13:17;;;;;;;6.85;2.55;;;15.70;99.90;;;;;;5013016;28;20061;-68
2023/08/27 12:15:43;;;;;;;6.25;2.58;;;15.60;99.90;;;;;;5037350;28;20098;-67
2023/08/27 12:18:09;;;;;;;13.30;4.20;;;15.50;99.90;;;;;;5022074;28;20442;-67
2023/08/27 12:20:36;;;;;;;15.93;4.32;;;15.10;99.90;;;;;;5031442;28;20354;-67
2023/08/27 12:23:13;;;;;;;21.27;5.63;;;14.40;99.90;;;;;;5023997;28;20099;-66
2023/08/27 12:25:49;;;;;;;18.27;4.57;;;13.90;99.90;;;;;;5033543;28;20095;-66
2023/08/27 12:28:16;;;;;;;12.98;4.28;;;13.60;99.90;;;;;;5012762;28;20119;-70
2023/08/27 12:30:52;;;;;;;6.80;3.75;;;13.90;99.90;;;;;;5021919;28;20045;-71
2023/08/27 12:33:18;;;;;;;4.30;3.50;;;13.50;99.90;;;;;;5021598;28;20972;-74
2023/08/27 12:35:47;;;;;;;6.78;3.85;;;13.80;99.90;;;;;;5012366;28;20037;-73
2023/08/27 12:38:18;;;;;;;8.90;5.25;;;13.90;99.90;;;;;;5020638;28;20044;-74